sensor_id;sensor_type;location;lat;lon;timestamp;P1;durP1;ratioP1;P2;durP2;ratioP2
66127;SDS011;52925;52.436;-1.952;2022-12-18T00:00:06;6.68;;;4.55;;
66127;SDS011;52925;52.436;-1.952;2022-12-18T00:01:33;9.15;;;5.25;;
66127;SDS011;52925;52.436;-1.952;2022-12-18T00:02:55;7.97;;;5.25;;
66127;SDS011;52925;52.436;-1.952;2022-12-18T00:04:21;6.15;;;4.60;;
66127;SDS011;52925;52.436;-1.952;2022-12-18T00:05:50;7.50;;;5.20;;
66127;SDS011;52925;52.436;-1.952;2022-12-18T00:07:12;7.05;;;5.10;;
66127;SDS011;52925;52.436;-1.952;2022-12-18T00:08:32;8.27;;;4.68;;
66127;SDS011;52925;52.436;-1.952;2022-12-18T00:09:53;8.13;;;5.25;;
66127;SDS011;52925;52.436;-1.952;2022-12-18T00:11:14;6.20;;;4.88;;
66127;SDS011;52925;52.436;-1.952;2022-12-18T00:12:36;5.80;;;4.63;;
66127;SDS011;52925;52.436;-1.952;2022-12-18T00:13:58;8.18;;;5.30;;
66127;SDS011;52925;52.436;-1.952;2022-12-18T00:15:18;7.43;;;5.20;;
66127;SDS011;52925;52.436;-1.952;2022-12-18T00:16:40;8.35;;;5.45;;
66127;SDS011;52925;52.436;-1.952;2022-12-18T00:18:03;6.90;;;4.90;;
66127;SDS011;52925;52.436;-1.952;2022-12-18T00:19:25;6.68;;;4.82;;
66127;SDS011;52925;52.436;-1.952;2022-12-18T00:20:45;7.97;;;5.50;;
66127;SDS011;52925;52.436;-1.952;2022-12-18T00:22:08;8.23;;;5.40;;
66127;SDS011;52925;52.436;-1.952;2022-12-18T00:23:29;7.20;;;5.20;;
66127;SDS011;52925;52.436;-1.952;2022-12-18T00:24:50;5.88;;;4.63;;
66127;SDS011;52925;52.436;-1.952;2022-12-18T00:26:11;7.05;;;5.22;;
66127;SDS011;52925;52.436;-1.952;2022-12-18T00:27:33;6.07;;;4.78;;
66127;SDS011;52925;52.436;-1.952;2022-12-18T00:28:54;6.80;;;4.88;;
66127;SDS011;52925;52.436;-1.952;2022-12-18T00:30:17;8.38;;;5.38;;
66127;SDS011;52925;52.436;-1.952;2022-12-18T00:31:38;7.70;;;5.30;;
66127;SDS011;52925;52.436;-1.952;2022-12-18T00:32:58;7.53;;;4.63;;
66127;SDS011;52925;52.436;-1.952;2022-12-18T00:34:19;7.00;;;4.88;;
66127;SDS011;52925;52.436;-1.952;2022-12-18T00:35:40;7.15;;;4.93;;
66127;SDS011;52925;52.436;-1.952;2022-12-18T00:36:59;7.32;;;4.95;;
66127;SDS011;52925;52.436;-1.952;2022-12-18T00:38:21;7.32;;;5.15;;
66127;SDS011;52925;52.436;-1.952;2022-12-18T00:39:42;6.20;;;4.65;;
66127;SDS011;52925;52.436;-1.952;2022-12-18T00:41:03;5.78;;;4.43;;
66127;SDS011;52925;52.436;-1.952;2022-12-18T00:42:23;10.85;;;5.53;;
66127;SDS011;52925;52.436;-1.952;2022-12-18T00:44:02;9.65;;;5.20;;
66127;SDS011;52925;52.436;-1.952;2022-12-18T00:45:23;7.03;;;5.40;;
66127;SDS011;52925;52.436;-1.952;2022-12-18T00:46:44;6.53;;;5.07;;
66127;SDS011;52925;52.436;-1.952;2022-12-18T00:48:05;8.02;;;5.20;;
66127;SDS011;52925;52.436;-1.952;2022-12-18T00:49:26;7.25;;;4.72;;
66127;SDS011;52925;52.436;-1.952;2022-12-18T00:50:47;6.55;;;4.95;;
66127;SDS011;52925;52.436;-1.952;2022-12-18T00:52:11;6.43;;;4.72;;
66127;SDS011;52925;52.436;-1.952;2022-12-18T00:53:34;6.28;;;4.38;;
66127;SDS011;52925;52.436;-1.952;2022-12-18T00:54:53;5.88;;;4.63;;
66127;SDS011;52925;52.436;-1.952;2022-12-18T00:56:14;7.47;;;4.60;;
66127;SDS011;52925;52.436;-1.952;2022-12-18T00:57:34;8.05;;;5.00;;
66127;SDS011;52925;52.436;-1.952;2022-12-18T00:58:56;6.63;;;4.90;;
66127;SDS011;52925;52.436;-1.952;2022-12-18T01:00:16;7.40;;;5.25;;
66127;SDS011;52925;52.436;-1.952;2022-12-18T01:01:37;5.93;;;4.40;;
66127;SDS011;52925;52.436;-1.952;2022-12-18T01:02:59;8.57;;;5.20;;
66127;SDS011;52925;52.436;-1.952;2022-12-18T01:04:20;7.07;;;5.15;;
66127;SDS011;52925;52.436;-1.952;2022-12-18T01:05:40;7.03;;;4.20;;
66127;SDS011;52925;52.436;-1.952;2022-12-18T01:07:02;6.72;;;5.20;;
66127;SDS011;52925;52.436;-1.952;2022-12-18T01:08:23;6.07;;;4.65;;
66127;SDS011;52925;52.436;-1.952;2022-12-18T01:09:44;6.15;;;4.68;;
66127;SDS011;52925;52.436;-1.952;2022-12-18T01:11:07;7.05;;;5.20;;
66127;SDS011;52925;52.436;-1.952;2022-12-18T01:12:29;7.25;;;5.07;;
66127;SDS011;52925;52.436;-1.952;2022-12-18T01:13:49;8.32;;;5.50;;
66127;SDS011;52925;52.436;-1.952;2022-12-18T01:15:12;8.75;;;5.72;;
66127;SDS011;52925;52.436;-1.952;2022-12-18T01:16:33;7.18;;;4.93;;
66127;SDS011;52925;52.436;-1.952;2022-12-18T01:17:53;7.50;;;4.80;;
66127;SDS011;52925;52.436;-1.952;2022-12-18T01:19:14;7.53;;;4.95;;
66127;SDS011;52925;52.436;-1.952;2022-12-18T01:20:34;7.05;;;5.00;;
66127;SDS011;52925;52.436;-1.952;2022-12-18T01:21:58;7.05;;;5.30;;
66127;SDS011;52925;52.436;-1.952;2022-12-18T01:23:18;6.63;;;4.90;;
66127;SDS011;52925;52.436;-1.952;2022-12-18T01:24:39;8.77;;;5.00;;
66127;SDS011;52925;52.436;-1.952;2022-12-18T01:26:05;7.00;;;4.78;;
66127;SDS011;52925;52.436;-1.952;2022-12-18T01:27:27;6.18;;;4.95;;
66127;SDS011;52925;52.436;-1.952;2022-12-18T01:28:48;7.13;;;5.40;;
66127;SDS011;52925;52.436;-1.952;2022-12-18T01:30:08;8.32;;;5.13;;
66127;SDS011;52925;52.436;-1.952;2022-12-18T01:31:31;8.70;;;5.63;;
66127;SDS011;52925;52.436;-1.952;2022-12-18T01:32:54;8.50;;;5.40;;
66127;SDS011;52925;52.436;-1.952;2022-12-18T01:34:14;7.60;;;5.30;;
66127;SDS011;52925;52.436;-1.952;2022-12-18T01:35:40;7.82;;;5.50;;
66127;SDS011;52925;52.436;-1.952;2022-12-18T01:37:02;7.57;;;5.10;;
66127;SDS011;52925;52.436;-1.952;2022-12-18T01:38:23;7.57;;;5.18;;
66127;SDS011;52925;52.436;-1.952;2022-12-18T01:39:45;8.02;;;5.68;;
66127;SDS011;52925;52.436;-1.952;2022-12-18T01:41:08;7.47;;;5.40;;
66127;SDS011;52925;52.436;-1.952;2022-12-18T01:42:28;7.72;;;5.20;;
66127;SDS011;52925;52.436;-1.952;2022-12-18T01:43:57;7.03;;;5.00;;
66127;SDS011;52925;52.436;-1.952;2022-12-18T01:45:24;7.53;;;5.40;;
66127;SDS011;52925;52.436;-1.952;2022-12-18T01:46:47;8.52;;;5.60;;
66127;SDS011;52925;52.436;-1.952;2022-12-18T01:48:06;8.10;;;5.25;;
66127;SDS011;52925;52.436;-1.952;2022-12-18T01:49:29;8.77;;;5.28;;
66127;SDS011;52925;52.436;-1.952;2022-12-18T01:50:49;8.63;;;6.07;;
66127;SDS011;52925;52.436;-1.952;2022-12-18T01:52:09;9.55;;;5.57;;
66127;SDS011;52925;52.436;-1.952;2022-12-18T01:53:29;7.25;;;5.53;;
66127;SDS011;52925;52.436;-1.952;2022-12-18T01:54:50;8.15;;;5.45;;
66127;SDS011;52925;52.436;-1.952;2022-12-18T01:56:13;8.60;;;5.65;;
66127;SDS011;52925;52.436;-1.952;2022-12-18T01:57:36;6.97;;;5.28;;
66127;SDS011;52925;52.436;-1.952;2022-12-18T01:58:58;7.05;;;5.20;;
66127;SDS011;52925;52.436;-1.952;2022-12-18T02:00:22;7.07;;;5.10;;
66127;SDS011;52925;52.436;-1.952;2022-12-18T02:01:44;8.40;;;5.32;;
66127;SDS011;52925;52.436;-1.952;2022-12-18T02:03:05;8.68;;;5.93;;
66127;SDS011;52925;52.436;-1.952;2022-12-18T02:04:27;7.30;;;6.00;;
66127;SDS011;52925;52.436;-1.952;2022-12-18T02:05:50;7.47;;;5.45;;
66127;SDS011;52925;52.436;-1.952;2022-12-18T02:07:22;7.13;;;5.40;;
66127;SDS011;52925;52.436;-1.952;2022-12-18T02:08:49;7.25;;;5.50;;
66127;SDS011;52925;52.436;-1.952;2022-12-18T02:10:20;9.00;;;6.05;;
66127;SDS011;52925;52.436;-1.952;2022-12-18T02:11:46;7.60;;;5.65;;
66127;SDS011;52925;52.436;-1.952;2022-12-18T02:13:14;7.95;;;5.82;;
66127;SDS011;52925;52.436;-1.952;2022-12-18T02:14:40;8.27;;;5.72;;
66127;SDS011;52925;52.436;-1.952;2022-12-18T02:16:06;7.05;;;5.53;;
66127;SDS011;52925;52.436;-1.952;2022-12-18T02:17:34;8.10;;;5.47;;
66127;SDS011;52925;52.436;-1.952;2022-12-18T02:19:00;8.88;;;5.85;;
66127;SDS011;52925;52.436;-1.952;2022-12-18T02:20:27;9.25;;;5.90;;
66127;SDS011;52925;52.436;-1.952;2022-12-18T02:21:55;8.60;;;6.15;;
66127;SDS011;52925;52.436;-1.952;2022-12-18T02:23:24;9.02;;;6.50;;
66127;SDS011;52925;52.436;-1.952;2022-12-18T02:25:01;9.40;;;6.00;;
66127;SDS011;52925;52.436;-1.952;2022-12-18T02:26:30;8.48;;;5.90;;
66127;SDS011;52925;52.436;-1.952;2022-12-18T02:27:55;9.95;;;6.32;;
66127;SDS011;52925;52.436;-1.952;2022-12-18T02:29:20;9.90;;;6.78;;
66127;SDS011;52925;52.436;-1.952;2022-12-18T02:30:43;8.30;;;6.05;;
66127;SDS011;52925;52.436;-1.952;2022-12-18T02:32:09;9.57;;;6.22;;
66127;SDS011;52925;52.436;-1.952;2022-12-18T02:33:36;8.68;;;6.38;;
66127;SDS011;52925;52.436;-1.952;2022-12-18T02:34:59;7.45;;;6.18;;
66127;SDS011;52925;52.436;-1.952;2022-12-18T02:36:25;8.48;;;5.72;;
66127;SDS011;52925;52.436;-1.952;2022-12-18T02:37:48;9.05;;;6.63;;
66127;SDS011;52925;52.436;-1.952;2022-12-18T02:39:12;9.20;;;6.32;;
66127;SDS011;52925;52.436;-1.952;2022-12-18T02:40:44;12.02;;;6.63;;
66127;SDS011;52925;52.436;-1.952;2022-12-18T02:42:11;7.13;;;5.68;;
66127;SDS011;52925;52.436;-1.952;2022-12-18T02:43:32;8.30;;;5.95;;
66127;SDS011;52925;52.436;-1.952;2022-12-18T02:44:55;9.52;;;6.55;;
66127;SDS011;52925;52.436;-1.952;2022-12-18T02:48:02;9.15;;;6.32;;
66127;SDS011;52925;52.436;-1.952;2022-12-18T02:49:26;9.35;;;6.47;;
66127;SDS011;52925;52.436;-1.952;2022-12-18T02:50:57;9.70;;;6.32;;
66127;SDS011;52925;52.436;-1.952;2022-12-18T02:52:25;9.50;;;6.50;;
66127;SDS011;52925;52.436;-1.952;2022-12-18T02:53:56;10.02;;;6.63;;
66127;SDS011;52925;52.436;-1.952;2022-12-18T02:55:25;8.55;;;6.13;;
66127;SDS011;52925;52.436;-1.952;2022-12-18T02:57:00;11.45;;;6.90;;
66127;SDS011;52925;52.436;-1.952;2022-12-18T02:58:30;9.75;;;7.07;;
66127;SDS011;52925;52.436;-1.952;2022-12-18T03:00:05;10.63;;;6.93;;
66127;SDS011;52925;52.436;-1.952;2022-12-18T03:01:30;9.95;;;6.88;;
66127;SDS011;52925;52.436;-1.952;2022-12-18T03:02:55;10.23;;;7.07;;
66127;SDS011;52925;52.436;-1.952;2022-12-18T03:04:22;9.23;;;6.43;;
66127;SDS011;52925;52.436;-1.952;2022-12-18T03:05:50;11.57;;;7.57;;
66127;SDS011;52925;52.436;-1.952;2022-12-18T03:07:17;9.50;;;6.82;;
66127;SDS011;52925;52.436;-1.952;2022-12-18T03:08:42;10.38;;;6.45;;
66127;SDS011;52925;52.436;-1.952;2022-12-18T03:10:09;9.88;;;7.18;;
66127;SDS011;52925;52.436;-1.952;2022-12-18T03:11:34;9.35;;;6.63;;
66127;SDS011;52925;52.436;-1.952;2022-12-18T03:13:16;10.70;;;7.40;;
66127;SDS011;52925;52.436;-1.952;2022-12-18T03:14:44;10.35;;;7.43;;
66127;SDS011;52925;52.436;-1.952;2022-12-18T03:16:09;10.55;;;7.13;;
66127;SDS011;52925;52.436;-1.952;2022-12-18T03:17:32;11.38;;;7.90;;
66127;SDS011;52925;52.436;-1.952;2022-12-18T03:18:54;10.05;;;6.90;;
66127;SDS011;52925;52.436;-1.952;2022-12-18T03:20:19;13.27;;;7.90;;
66127;SDS011;52925;52.436;-1.952;2022-12-18T03:21:43;9.80;;;7.57;;
66127;SDS011;52925;52.436;-1.952;2022-12-18T03:23:09;11.63;;;7.32;;
66127;SDS011;52925;52.436;-1.952;2022-12-18T03:24:32;10.63;;;7.25;;
66127;SDS011;52925;52.436;-1.952;2022-12-18T03:25:59;10.63;;;7.53;;
66127;SDS011;52925;52.436;-1.952;2022-12-18T03:27:29;11.73;;;7.85;;
66127;SDS011;52925;52.436;-1.952;2022-12-18T03:28:56;10.65;;;8.15;;
66127;SDS011;52925;52.436;-1.952;2022-12-18T03:30:25;9.48;;;7.13;;
66127;SDS011;52925;52.436;-1.952;2022-12-18T03:31:47;11.40;;;7.90;;
66127;SDS011;52925;52.436;-1.952;2022-12-18T03:33:14;11.43;;;7.82;;
66127;SDS011;52925;52.436;-1.952;2022-12-18T03:34:40;9.93;;;7.60;;
66127;SDS011;52925;52.436;-1.952;2022-12-18T03:36:06;10.10;;;7.90;;
66127;SDS011;52925;52.436;-1.952;2022-12-18T03:37:28;12.93;;;7.90;;
66127;SDS011;52925;52.436;-1.952;2022-12-18T03:38:49;13.52;;;8.48;;
66127;SDS011;52925;52.436;-1.952;2022-12-18T03:40:11;13.52;;;8.75;;
66127;SDS011;52925;52.436;-1.952;2022-12-18T03:41:37;11.77;;;8.25;;
66127;SDS011;52925;52.436;-1.952;2022-12-18T03:43:32;15.85;;;8.77;;
66127;SDS011;52925;52.436;-1.952;2022-12-18T03:45:05;10.68;;;7.88;;
66127;SDS011;52925;52.436;-1.952;2022-12-18T03:46:33;12.38;;;8.48;;
66127;SDS011;52925;52.436;-1.952;2022-12-18T03:48:03;11.13;;;8.35;;
66127;SDS011;52925;52.436;-1.952;2022-12-18T03:49:32;12.07;;;8.73;;
66127;SDS011;52925;52.436;-1.952;2022-12-18T03:50:59;13.50;;;8.50;;
66127;SDS011;52925;52.436;-1.952;2022-12-18T03:52:28;14.23;;;8.80;;
66127;SDS011;52925;52.436;-1.952;2022-12-18T03:53:55;12.75;;;8.60;;
66127;SDS011;52925;52.436;-1.952;2022-12-18T03:55:22;14.95;;;9.18;;
66127;SDS011;52925;52.436;-1.952;2022-12-18T03:56:58;16.67;;;9.68;;
66127;SDS011;52925;52.436;-1.952;2022-12-18T03:58:24;14.95;;;9.75;;
66127;SDS011;52925;52.436;-1.952;2022-12-18T03:59:54;15.77;;;9.50;;
66127;SDS011;52925;52.436;-1.952;2022-12-18T04:01:23;13.60;;;8.85;;
66127;SDS011;52925;52.436;-1.952;2022-12-18T04:02:51;14.18;;;9.45;;
66127;SDS011;52925;52.436;-1.952;2022-12-18T04:04:19;15.80;;;9.38;;
66127;SDS011;52925;52.436;-1.952;2022-12-18T04:05:41;15.18;;;9.65;;
66127;SDS011;52925;52.436;-1.952;2022-12-18T04:07:03;15.43;;;10.05;;
66127;SDS011;52925;52.436;-1.952;2022-12-18T04:08:26;14.45;;;9.80;;
66127;SDS011;52925;52.436;-1.952;2022-12-18T04:09:56;16.13;;;10.18;;
66127;SDS011;52925;52.436;-1.952;2022-12-18T04:11:19;14.45;;;10.07;;
66127;SDS011;52925;52.436;-1.952;2022-12-18T04:12:40;14.10;;;9.77;;
66127;SDS011;52925;52.436;-1.952;2022-12-18T04:14:03;17.25;;;10.80;;
66127;SDS011;52925;52.436;-1.952;2022-12-18T04:15:24;14.48;;;10.38;;
66127;SDS011;52925;52.436;-1.952;2022-12-18T04:16:45;18.50;;;10.63;;
66127;SDS011;52925;52.436;-1.952;2022-12-18T04:18:10;15.82;;;11.13;;
66127;SDS011;52925;52.436;-1.952;2022-12-18T04:19:34;16.00;;;10.75;;
66127;SDS011;52925;52.436;-1.952;2022-12-18T04:20:55;16.38;;;11.15;;
66127;SDS011;52925;52.436;-1.952;2022-12-18T04:22:16;16.67;;;11.02;;
66127;SDS011;52925;52.436;-1.952;2022-12-18T04:23:40;18.45;;;11.52;;
66127;SDS011;52925;52.436;-1.952;2022-12-18T04:25:01;17.35;;;11.45;;
66127;SDS011;52925;52.436;-1.952;2022-12-18T04:26:30;18.13;;;11.32;;
66127;SDS011;52925;52.436;-1.952;2022-12-18T04:28:09;16.60;;;11.02;;
66127;SDS011;52925;52.436;-1.952;2022-12-18T04:29:30;16.80;;;10.85;;
66127;SDS011;52925;52.436;-1.952;2022-12-18T04:30:52;18.88;;;11.75;;
66127;SDS011;52925;52.436;-1.952;2022-12-18T04:32:14;17.08;;;11.23;;
66127;SDS011;52925;52.436;-1.952;2022-12-18T04:33:37;16.10;;;10.85;;
66127;SDS011;52925;52.436;-1.952;2022-12-18T04:35:00;16.85;;;11.00;;
66127;SDS011;52925;52.436;-1.952;2022-12-18T04:36:23;18.90;;;11.48;;
66127;SDS011;52925;52.436;-1.952;2022-12-18T04:37:47;17.05;;;12.10;;
66127;SDS011;52925;52.436;-1.952;2022-12-18T04:39:08;19.98;;;12.70;;
66127;SDS011;52925;52.436;-1.952;2022-12-18T04:40:29;20.08;;;12.15;;
66127;SDS011;52925;52.436;-1.952;2022-12-18T04:41:49;18.13;;;11.77;;
66127;SDS011;52925;52.436;-1.952;2022-12-18T04:43:10;18.00;;;12.32;;
66127;SDS011;52925;52.436;-1.952;2022-12-18T04:44:30;18.65;;;12.73;;
66127;SDS011;52925;52.436;-1.952;2022-12-18T04:45:53;19.35;;;12.27;;
66127;SDS011;52925;52.436;-1.952;2022-12-18T04:47:22;18.40;;;11.65;;
66127;SDS011;52925;52.436;-1.952;2022-12-18T04:48:44;19.83;;;11.85;;
66127;SDS011;52925;52.436;-1.952;2022-12-18T04:50:06;19.45;;;12.50;;
66127;SDS011;52925;52.436;-1.952;2022-12-18T04:51:26;18.77;;;12.30;;
66127;SDS011;52925;52.436;-1.952;2022-12-18T04:52:47;19.77;;;12.05;;
66127;SDS011;52925;52.436;-1.952;2022-12-18T04:54:07;18.27;;;11.70;;
66127;SDS011;52925;52.436;-1.952;2022-12-18T04:55:28;26.20;;;13.02;;
66127;SDS011;52925;52.436;-1.952;2022-12-18T04:56:47;18.20;;;12.25;;
66127;SDS011;52925;52.436;-1.952;2022-12-18T04:58:09;21.10;;;12.40;;
66127;SDS011;52925;52.436;-1.952;2022-12-18T04:59:29;19.65;;;12.35;;
66127;SDS011;52925;52.436;-1.952;2022-12-18T05:00:49;19.25;;;12.38;;
66127;SDS011;52925;52.436;-1.952;2022-12-18T05:02:09;19.08;;;13.00;;
66127;SDS011;52925;52.436;-1.952;2022-12-18T05:03:30;20.38;;;12.82;;
66127;SDS011;52925;52.436;-1.952;2022-12-18T05:04:51;21.40;;;12.52;;
66127;SDS011;52925;52.436;-1.952;2022-12-18T05:06:12;21.10;;;13.02;;
66127;SDS011;52925;52.436;-1.952;2022-12-18T05:07:33;17.10;;;11.85;;
66127;SDS011;52925;52.436;-1.952;2022-12-18T05:08:53;19.00;;;12.15;;
66127;SDS011;52925;52.436;-1.952;2022-12-18T05:10:15;21.65;;;13.32;;
66127;SDS011;52925;52.436;-1.952;2022-12-18T05:11:36;20.17;;;12.57;;
66127;SDS011;52925;52.436;-1.952;2022-12-18T05:12:56;21.35;;;13.90;;
66127;SDS011;52925;52.436;-1.952;2022-12-18T05:14:20;18.85;;;12.32;;
66127;SDS011;52925;52.436;-1.952;2022-12-18T05:15:40;20.17;;;12.60;;
66127;SDS011;52925;52.436;-1.952;2022-12-18T05:17:01;22.73;;;13.57;;
66127;SDS011;52925;52.436;-1.952;2022-12-18T05:18:22;19.85;;;12.63;;
66127;SDS011;52925;52.436;-1.952;2022-12-18T05:19:42;20.75;;;13.98;;
66127;SDS011;52925;52.436;-1.952;2022-12-18T05:21:05;20.58;;;13.45;;
66127;SDS011;52925;52.436;-1.952;2022-12-18T05:22:24;19.10;;;12.93;;
66127;SDS011;52925;52.436;-1.952;2022-12-18T05:23:45;18.98;;;12.65;;
66127;SDS011;52925;52.436;-1.952;2022-12-18T05:25:06;17.25;;;11.98;;
66127;SDS011;52925;52.436;-1.952;2022-12-18T05:26:29;20.25;;;12.88;;
66127;SDS011;52925;52.436;-1.952;2022-12-18T05:27:50;20.35;;;12.60;;
66127;SDS011;52925;52.436;-1.952;2022-12-18T05:29:11;20.60;;;12.90;;
66127;SDS011;52925;52.436;-1.952;2022-12-18T05:30:32;21.23;;;12.85;;
66127;SDS011;52925;52.436;-1.952;2022-12-18T05:31:52;20.95;;;13.50;;
66127;SDS011;52925;52.436;-1.952;2022-12-18T05:33:13;19.88;;;13.07;;
66127;SDS011;52925;52.436;-1.952;2022-12-18T05:34:33;22.63;;;13.90;;
66127;SDS011;52925;52.436;-1.952;2022-12-18T05:35:55;20.70;;;13.50;;
66127;SDS011;52925;52.436;-1.952;2022-12-18T05:37:19;21.35;;;12.95;;
66127;SDS011;52925;52.436;-1.952;2022-12-18T05:38:40;22.08;;;14.02;;
66127;SDS011;52925;52.436;-1.952;2022-12-18T05:40:00;19.90;;;13.25;;
66127;SDS011;52925;52.436;-1.952;2022-12-18T05:41:22;22.13;;;13.55;;
66127;SDS011;52925;52.436;-1.952;2022-12-18T05:42:42;20.48;;;13.60;;
66127;SDS011;52925;52.436;-1.952;2022-12-18T05:44:03;21.55;;;13.60;;
66127;SDS011;52925;52.436;-1.952;2022-12-18T05:45:24;20.83;;;13.68;;
66127;SDS011;52925;52.436;-1.952;2022-12-18T05:46:44;21.38;;;13.55;;
66127;SDS011;52925;52.436;-1.952;2022-12-18T05:48:05;22.17;;;14.52;;
66127;SDS011;52925;52.436;-1.952;2022-12-18T05:49:25;21.77;;;14.00;;
66127;SDS011;52925;52.436;-1.952;2022-12-18T05:50:46;22.42;;;14.35;;
66127;SDS011;52925;52.436;-1.952;2022-12-18T05:52:08;21.80;;;13.32;;
66127;SDS011;52925;52.436;-1.952;2022-12-18T05:53:31;20.63;;;13.07;;
66127;SDS011;52925;52.436;-1.952;2022-12-18T05:54:51;21.23;;;13.18;;
66127;SDS011;52925;52.436;-1.952;2022-12-18T05:56:12;20.58;;;13.00;;
66127;SDS011;52925;52.436;-1.952;2022-12-18T05:57:33;20.90;;;13.65;;
66127;SDS011;52925;52.436;-1.952;2022-12-18T05:58:54;20.25;;;13.65;;
66127;SDS011;52925;52.436;-1.952;2022-12-18T06:00:15;21.02;;;14.10;;
66127;SDS011;52925;52.436;-1.952;2022-12-18T06:01:35;22.00;;;13.43;;
66127;SDS011;52925;52.436;-1.952;2022-12-18T06:02:57;23.25;;;14.20;;
66127;SDS011;52925;52.436;-1.952;2022-12-18T06:04:17;22.88;;;14.48;;
66127;SDS011;52925;52.436;-1.952;2022-12-18T06:05:38;20.73;;;13.98;;
66127;SDS011;52925;52.436;-1.952;2022-12-18T06:07:00;23.88;;;15.07;;
66127;SDS011;52925;52.436;-1.952;2022-12-18T06:08:21;22.77;;;14.75;;
66127;SDS011;52925;52.436;-1.952;2022-12-18T06:09:43;22.35;;;14.85;;
66127;SDS011;52925;52.436;-1.952;2022-12-18T06:11:04;22.63;;;14.38;;
66127;SDS011;52925;52.436;-1.952;2022-12-18T06:12:24;21.45;;;14.05;;
66127;SDS011;52925;52.436;-1.952;2022-12-18T06:13:45;20.38;;;14.02;;
66127;SDS011;52925;52.436;-1.952;2022-12-18T06:15:05;22.02;;;14.77;;
66127;SDS011;52925;52.436;-1.952;2022-12-18T06:16:27;24.05;;;15.90;;
66127;SDS011;52925;52.436;-1.952;2022-12-18T06:17:48;24.00;;;14.25;;
66127;SDS011;52925;52.436;-1.952;2022-12-18T06:19:12;23.48;;;15.30;;
66127;SDS011;52925;52.436;-1.952;2022-12-18T06:20:35;22.17;;;14.77;;
66127;SDS011;52925;52.436;-1.952;2022-12-18T06:21:56;21.73;;;14.43;;
66127;SDS011;52925;52.436;-1.952;2022-12-18T06:23:18;23.90;;;15.23;;
66127;SDS011;52925;52.436;-1.952;2022-12-18T06:24:38;24.00;;;15.07;;
66127;SDS011;52925;52.436;-1.952;2022-12-18T06:26:02;25.98;;;15.27;;
66127;SDS011;52925;52.436;-1.952;2022-12-18T06:27:23;25.90;;;15.15;;
66127;SDS011;52925;52.436;-1.952;2022-12-18T06:28:46;23.88;;;15.02;;
66127;SDS011;52925;52.436;-1.952;2022-12-18T06:30:07;25.77;;;16.50;;
66127;SDS011;52925;52.436;-1.952;2022-12-18T06:31:29;25.00;;;15.75;;
66127;SDS011;52925;52.436;-1.952;2022-12-18T06:32:49;24.08;;;15.55;;
66127;SDS011;52925;52.436;-1.952;2022-12-18T06:34:10;25.55;;;16.08;;
66127;SDS011;52925;52.436;-1.952;2022-12-18T06:35:31;27.13;;;16.90;;
66127;SDS011;52925;52.436;-1.952;2022-12-18T06:36:52;25.10;;;16.75;;
66127;SDS011;52925;52.436;-1.952;2022-12-18T06:38:16;24.98;;;15.95;;
66127;SDS011;52925;52.436;-1.952;2022-12-18T06:39:35;25.80;;;16.25;;
66127;SDS011;52925;52.436;-1.952;2022-12-18T06:40:56;26.13;;;17.05;;
66127;SDS011;52925;52.436;-1.952;2022-12-18T06:42:17;26.75;;;16.58;;
66127;SDS011;52925;52.436;-1.952;2022-12-18T06:43:38;26.90;;;17.50;;
66127;SDS011;52925;52.436;-1.952;2022-12-18T06:44:58;25.20;;;16.13;;
66127;SDS011;52925;52.436;-1.952;2022-12-18T06:46:20;25.15;;;16.88;;
66127;SDS011;52925;52.436;-1.952;2022-12-18T06:47:39;24.05;;;15.82;;
66127;SDS011;52925;52.436;-1.952;2022-12-18T06:49:01;28.67;;;17.33;;
66127;SDS011;52925;52.436;-1.952;2022-12-18T06:50:21;25.13;;;16.23;;
66127;SDS011;52925;52.436;-1.952;2022-12-18T06:51:42;25.50;;;15.93;;
66127;SDS011;52925;52.436;-1.952;2022-12-18T06:53:03;26.73;;;16.52;;
66127;SDS011;52925;52.436;-1.952;2022-12-18T06:54:23;26.37;;;16.57;;
66127;SDS011;52925;52.436;-1.952;2022-12-18T06:55:43;25.90;;;16.45;;
66127;SDS011;52925;52.436;-1.952;2022-12-18T06:57:03;26.60;;;17.13;;
66127;SDS011;52925;52.436;-1.952;2022-12-18T06:58:25;25.33;;;16.35;;
66127;SDS011;52925;52.436;-1.952;2022-12-18T06:59:46;25.27;;;17.20;;
66127;SDS011;52925;52.436;-1.952;2022-12-18T07:01:07;26.38;;;16.70;;
66127;SDS011;52925;52.436;-1.952;2022-12-18T07:02:29;24.03;;;15.20;;
66127;SDS011;52925;52.436;-1.952;2022-12-18T07:03:51;27.17;;;16.70;;
66127;SDS011;52925;52.436;-1.952;2022-12-18T07:05:13;25.35;;;16.70;;
66127;SDS011;52925;52.436;-1.952;2022-12-18T07:06:33;26.38;;;16.20;;
66127;SDS011;52925;52.436;-1.952;2022-12-18T07:07:54;27.70;;;17.08;;
66127;SDS011;52925;52.436;-1.952;2022-12-18T07:09:14;25.48;;;15.68;;
66127;SDS011;52925;52.436;-1.952;2022-12-18T07:10:40;24.95;;;16.38;;
66127;SDS011;52925;52.436;-1.952;2022-12-18T07:12:01;26.70;;;16.48;;
66127;SDS011;52925;52.436;-1.952;2022-12-18T07:13:23;25.33;;;16.25;;
66127;SDS011;52925;52.436;-1.952;2022-12-18T07:14:45;25.98;;;16.38;;
66127;SDS011;52925;52.436;-1.952;2022-12-18T07:16:07;24.85;;;15.95;;
66127;SDS011;52925;52.436;-1.952;2022-12-18T07:17:31;25.88;;;15.35;;
66127;SDS011;52925;52.436;-1.952;2022-12-18T07:18:51;23.98;;;15.40;;
66127;SDS011;52925;52.436;-1.952;2022-12-18T07:20:12;25.35;;;16.35;;
66127;SDS011;52925;52.436;-1.952;2022-12-18T07:21:33;26.55;;;16.58;;
66127;SDS011;52925;52.436;-1.952;2022-12-18T07:22:56;24.77;;;15.65;;
66127;SDS011;52925;52.436;-1.952;2022-12-18T07:24:16;26.50;;;15.65;;
66127;SDS011;52925;52.436;-1.952;2022-12-18T07:25:37;26.83;;;16.67;;
66127;SDS011;52925;52.436;-1.952;2022-12-18T07:26:58;24.10;;;16.05;;
66127;SDS011;52925;52.436;-1.952;2022-12-18T07:28:19;25.98;;;15.90;;
66127;SDS011;52925;52.436;-1.952;2022-12-18T07:29:41;26.23;;;15.75;;
66127;SDS011;52925;52.436;-1.952;2022-12-18T07:31:02;25.20;;;16.02;;
66127;SDS011;52925;52.436;-1.952;2022-12-18T07:32:25;23.60;;;15.73;;
66127;SDS011;52925;52.436;-1.952;2022-12-18T07:33:46;23.60;;;14.88;;
66127;SDS011;52925;52.436;-1.952;2022-12-18T07:35:11;24.48;;;15.65;;
66127;SDS011;52925;52.436;-1.952;2022-12-18T07:36:32;25.00;;;16.35;;
66127;SDS011;52925;52.436;-1.952;2022-12-18T07:37:53;24.40;;;15.27;;
66127;SDS011;52925;52.436;-1.952;2022-12-18T07:39:13;23.73;;;15.55;;
66127;SDS011;52925;52.436;-1.952;2022-12-18T07:40:35;23.52;;;14.98;;
66127;SDS011;52925;52.436;-1.952;2022-12-18T07:41:55;24.02;;;15.70;;
66127;SDS011;52925;52.436;-1.952;2022-12-18T07:43:34;24.50;;;15.88;;
66127;SDS011;52925;52.436;-1.952;2022-12-18T07:44:57;26.35;;;16.00;;
66127;SDS011;52925;52.436;-1.952;2022-12-18T07:46:19;25.60;;;15.27;;
66127;SDS011;52925;52.436;-1.952;2022-12-18T07:47:40;26.40;;;16.05;;
66127;SDS011;52925;52.436;-1.952;2022-12-18T07:48:59;24.63;;;15.25;;
66127;SDS011;52925;52.436;-1.952;2022-12-18T07:50:20;23.70;;;14.85;;
66127;SDS011;52925;52.436;-1.952;2022-12-18T07:51:43;25.00;;;15.15;;
66127;SDS011;52925;52.436;-1.952;2022-12-18T07:53:07;22.08;;;14.88;;
66127;SDS011;52925;52.436;-1.952;2022-12-18T07:54:28;23.77;;;15.57;;
66127;SDS011;52925;52.436;-1.952;2022-12-18T07:55:54;25.55;;;16.40;;
66127;SDS011;52925;52.436;-1.952;2022-12-18T07:57:14;22.95;;;14.80;;
66127;SDS011;52925;52.436;-1.952;2022-12-18T07:58:36;23.58;;;14.52;;
66127;SDS011;52925;52.436;-1.952;2022-12-18T07:59:59;24.17;;;15.15;;
66127;SDS011;52925;52.436;-1.952;2022-12-18T08:01:19;24.55;;;14.63;;
66127;SDS011;52925;52.436;-1.952;2022-12-18T08:02:42;24.50;;;15.35;;
66127;SDS011;52925;52.436;-1.952;2022-12-18T08:04:04;24.65;;;15.15;;
66127;SDS011;52925;52.436;-1.952;2022-12-18T08:05:25;22.88;;;14.77;;
66127;SDS011;52925;52.436;-1.952;2022-12-18T08:06:45;25.45;;;14.80;;